sensor_id;sensor_type;location;lat;lon;timestamp;temperature;humidity
18101;DHT22;9177;49.156;8.142;2022-08-19T00:01:56;26.20;99.90
18101;DHT22;9177;49.156;8.142;2022-08-19T00:04:28;26.20;99.90
18101;DHT22;9177;49.156;8.142;2022-08-19T00:06:57;26.20;99.90
18101;DHT22;9177;49.156;8.142;2022-08-19T00:09:25;26.20;99.90
18101;DHT22;9177;49.156;8.142;2022-08-19T00:11:53;26.20;99.90
18101;DHT22;9177;49.156;8.142;2022-08-19T00:14:22;26.20;99.90
18101;DHT22;9177;49.156;8.142;2022-08-19T00:16:50;26.20;99.90
18101;DHT22;9177;49.156;8.142;2022-08-19T00:19:19;26.20;99.90
18101;DHT22;9177;49.156;8.142;2022-08-19T00:21:47;26.20;99.90
18101;DHT22;9177;49.156;8.142;2022-08-19T00:24:15;26.20;99.90
18101;DHT22;9177;49.156;8.142;2022-08-19T00:26:43;26.20;99.90
18101;DHT22;9177;49.156;8.142;2022-08-19T00:29:12;26.20;99.90
18101;DHT22;9177;49.156;8.142;2022-08-19T00:31:40;26.20;99.90
18101;DHT22;9177;49.156;8.142;2022-08-19T00:34:08;26.20;99.90
18101;DHT22;9177;49.156;8.142;2022-08-19T00:36:35;26.20;99.90
18101;DHT22;9177;49.156;8.142;2022-08-19T00:39:03;26.20;99.90
18101;DHT22;9177;49.156;8.142;2022-08-19T00:41:31;26.20;99.90
18101;DHT22;9177;49.156;8.142;2022-08-19T00:44:02;26.20;99.90
18101;DHT22;9177;49.156;8.142;2022-08-19T00:46:30;26.20;99.90
18101;DHT22;9177;49.156;8.142;2022-08-19T00:48:58;26.20;99.90
18101;DHT22;9177;49.156;8.142;2022-08-19T00:51:27;26.20;99.90
18101;DHT22;9177;49.156;8.142;2022-08-19T00:53:59;26.20;99.90
18101;DHT22;9177;49.156;8.142;2022-08-19T00:56:26;26.20;99.90
18101;DHT22;9177;49.156;8.142;2022-08-19T00:58:59;26.20;99.90
18101;DHT22;9177;49.156;8.142;2022-08-19T01:01:27;26.20;99.90
18101;DHT22;9177;49.156;8.142;2022-08-19T01:03:55;26.20;99.90
18101;DHT22;9177;49.156;8.142;2022-08-19T01:06:24;26.20;99.90
18101;DHT22;9177;49.156;8.142;2022-08-19T01:08:51;26.20;99.90
18101;DHT22;9177;49.156;8.142;2022-08-19T01:11:18;26.20;99.90
18101;DHT22;9177;49.156;8.142;2022-08-19T01:13:45;26.10;99.90
18101;DHT22;9177;49.156;8.142;2022-08-19T01:16:14;26.10;99.90
18101;DHT22;9177;49.156;8.142;2022-08-19T01:18:42;26.20;99.90
18101;DHT22;9177;49.156;8.142;2022-08-19T01:21:12;26.20;99.90
18101;DHT22;9177;49.156;8.142;2022-08-19T01:23:48;26.10;99.90
18101;DHT22;9177;49.156;8.142;2022-08-19T01:26:19;26.20;99.90
18101;DHT22;9177;49.156;8.142;2022-08-19T01:28:50;26.20;99.90
18101;DHT22;9177;49.156;8.142;2022-08-19T01:31:22;26.10;99.90
18101;DHT22;9177;49.156;8.142;2022-08-19T01:33:52;26.10;99.90
18101;DHT22;9177;49.156;8.142;2022-08-19T01:36:24;26.20;99.90
18101;DHT22;9177;49.156;8.142;2022-08-19T01:38:53;26.10;99.90
18101;DHT22;9177;49.156;8.142;2022-08-19T01:41:20;26.10;99.90
18101;DHT22;9177;49.156;8.142;2022-08-19T01:43:49;26.10;99.90
18101;DHT22;9177;49.156;8.142;2022-08-19T01:46:16;26.10;99.90
18101;DHT22;9177;49.156;8.142;2022-08-19T01:48:44;26.10;99.90
18101;DHT22;9177;49.156;8.142;2022-08-19T01:51:21;26.10;99.90
18101;DHT22;9177;49.156;8.142;2022-08-19T01:53:48;26.20;99.90
18101;DHT22;9177;49.156;8.142;2022-08-19T01:56:17;26.10;99.90
18101;DHT22;9177;49.156;8.142;2022-08-19T01:58:48;26.10;99.90
18101;DHT22;9177;49.156;8.142;2022-08-19T02:01:16;26.10;99.90
18101;DHT22;9177;49.156;8.142;2022-08-19T02:03:44;26.20;99.90
18101;DHT22;9177;49.156;8.142;2022-08-19T02:06:11;26.10;99.90
18101;DHT22;9177;49.156;8.142;2022-08-19T02:08:39;26.10;99.90
18101;DHT22;9177;49.156;8.142;2022-08-19T02:11:06;26.10;99.90
18101;DHT22;9177;49.156;8.142;2022-08-19T02:13:35;26.10;99.90
18101;DHT22;9177;49.156;8.142;2022-08-19T02:16:02;26.10;99.90
18101;DHT22;9177;49.156;8.142;2022-08-19T02:18:29;26.10;99.90
18101;DHT22;9177;49.156;8.142;2022-08-19T02:20:56;26.10;99.90
18101;DHT22;9177;49.156;8.142;2022-08-19T02:23:23;26.10;99.90
18101;DHT22;9177;49.156;8.142;2022-08-19T02:25:51;26.10;99.90
18101;DHT22;9177;49.156;8.142;2022-08-19T02:28:19;26.10;99.90
18101;DHT22;9177;49.156;8.142;2022-08-19T02:30:48;26.10;99.90
18101;DHT22;9177;49.156;8.142;2022-08-19T02:33:15;26.10;99.90
18101;DHT22;9177;49.156;8.142;2022-08-19T02:35:42;26.10;99.90
18101;DHT22;9177;49.156;8.142;2022-08-19T02:38:09;26.10;99.90
18101;DHT22;9177;49.156;8.142;2022-08-19T02:40:56;26.10;99.90
18101;DHT22;9177;49.156;8.142;2022-08-19T02:43:23;26.10;99.90
18101;DHT22;9177;49.156;8.142;2022-08-19T02:45:52;26.10;99.90
18101;DHT22;9177;49.156;8.142;2022-08-19T02:48:21;26.10;99.90
18101;DHT22;9177;49.156;8.142;2022-08-19T02:50:52;26.10;99.90
18101;DHT22;9177;49.156;8.142;2022-08-19T02:53:21;26.10;99.90
18101;DHT22;9177;49.156;8.142;2022-08-19T02:55:49;26.10;99.90
18101;DHT22;9177;49.156;8.142;2022-08-19T02:58:17;26.10;99.90
18101;DHT22;9177;49.156;8.142;2022-08-19T03:00:46;26.10;99.90
18101;DHT22;9177;49.156;8.142;2022-08-19T03:03:15;26.10;99.90
18101;DHT22;9177;49.156;8.142;2022-08-19T03:05:42;26.10;99.90
18101;DHT22;9177;49.156;8.142;2022-08-19T03:08:10;26.10;99.90
18101;DHT22;9177;49.156;8.142;2022-08-19T03:10:42;26.10;99.90
18101;DHT22;9177;49.156;8.142;2022-08-19T03:13:12;26.10;99.90
18101;DHT22;9177;49.156;8.142;2022-08-19T03:15:41;26.10;99.90
18101;DHT22;9177;49.156;8.142;2022-08-19T03:18:08;26.10;99.90
18101;DHT22;9177;49.156;8.142;2022-08-19T03:20:41;26.10;99.90
18101;DHT22;9177;49.156;8.142;2022-08-19T03:23:08;26.10;99.90
18101;DHT22;9177;49.156;8.142;2022-08-19T03:25:38;26.10;99.90
18101;DHT22;9177;49.156;8.142;2022-08-19T03:28:06;26.10;99.90
18101;DHT22;9177;49.156;8.142;2022-08-19T03:30:33;26.10;99.90
18101;DHT22;9177;49.156;8.142;2022-08-19T03:33:00;26.10;99.90
18101;DHT22;9177;49.156;8.142;2022-08-19T03:35:27;26.10;99.90
18101;DHT22;9177;49.156;8.142;2022-08-19T03:37:56;26.10;99.90
18101;DHT22;9177;49.156;8.142;2022-08-19T03:40:24;26.10;99.90
18101;DHT22;9177;49.156;8.142;2022-08-19T03:42:51;26.00;99.90
18101;DHT22;9177;49.156;8.142;2022-08-19T03:45:18;26.00;99.90
18101;DHT22;9177;49.156;8.142;2022-08-19T03:47:45;26.00;99.90
18101;DHT22;9177;49.156;8.142;2022-08-19T03:50:12;26.00;99.90
18101;DHT22;9177;49.156;8.142;2022-08-19T03:52:39;26.00;99.90
18101;DHT22;9177;49.156;8.142;2022-08-19T03:55:08;26.00;99.90
18101;DHT22;9177;49.156;8.142;2022-08-19T03:57:35;26.00;99.90
18101;DHT22;9177;49.156;8.142;2022-08-19T04:00:04;26.10;99.90
18101;DHT22;9177;49.156;8.142;2022-08-19T04:02:32;26.00;99.90
18101;DHT22;9177;49.156;8.142;2022-08-19T04:04:58;26.00;99.90
18101;DHT22;9177;49.156;8.142;2022-08-19T04:07:26;26.10;99.90
18101;DHT22;9177;49.156;8.142;2022-08-19T04:09:53;26.00;99.90
18101;DHT22;9177;49.156;8.142;2022-08-19T04:12:21;26.00;99.90
18101;DHT22;9177;49.156;8.142;2022-08-19T04:14:48;26.00;99.90
18101;DHT22;9177;49.156;8.142;2022-08-19T04:17:15;26.00;99.90
18101;DHT22;9177;49.156;8.142;2022-08-19T04:19:42;26.00;99.90
18101;DHT22;9177;49.156;8.142;2022-08-19T04:22:09;26.00;99.90
18101;DHT22;9177;49.156;8.142;2022-08-19T04:24:37;26.00;99.90
18101;DHT22;9177;49.156;8.142;2022-08-19T04:27:04;26.00;99.90
18101;DHT22;9177;49.156;8.142;2022-08-19T04:29:33;26.00;99.90
18101;DHT22;9177;49.156;8.142;2022-08-19T04:32:05;26.00;99.90
18101;DHT22;9177;49.156;8.142;2022-08-19T04:34:32;26.00;99.90
18101;DHT22;9177;49.156;8.142;2022-08-19T04:36:59;26.00;99.90
18101;DHT22;9177;49.156;8.142;2022-08-19T04:39:28;26.00;99.90
18101;DHT22;9177;49.156;8.142;2022-08-19T04:42:09;26.00;99.90
18101;DHT22;9177;49.156;8.142;2022-08-19T04:44:54;26.00;99.90
18101;DHT22;9177;49.156;8.142;2022-08-19T04:47:21;26.00;99.90
18101;DHT22;9177;49.156;8.142;2022-08-19T04:49:48;26.00;99.90
18101;DHT22;9177;49.156;8.142;2022-08-19T04:52:15;26.00;99.90
18101;DHT22;9177;49.156;8.142;2022-08-19T04:54:42;26.00;99.90
18101;DHT22;9177;49.156;8.142;2022-08-19T04:57:09;26.00;99.90
18101;DHT22;9177;49.156;8.142;2022-08-19T04:59:37;26.00;99.90
18101;DHT22;9177;49.156;8.142;2022-08-19T05:02:07;26.00;99.90
18101;DHT22;9177;49.156;8.142;2022-08-19T05:04:34;26.00;99.90
18101;DHT22;9177;49.156;8.142;2022-08-19T05:07:04;26.00;99.90
18101;DHT22;9177;49.156;8.142;2022-08-19T05:09:31;26.00;99.90
18101;DHT22;9177;49.156;8.142;2022-08-19T05:11:58;26.00;99.90
18101;DHT22;9177;49.156;8.142;2022-08-19T05:14:25;26.00;99.90
18101;DHT22;9177;49.156;8.142;2022-08-19T05:16:52;26.00;99.90
18101;DHT22;9177;49.156;8.142;2022-08-19T05:19:20;26.00;99.90
18101;DHT22;9177;49.156;8.142;2022-08-19T05:22:05;26.00;99.90
18101;DHT22;9177;49.156;8.142;2022-08-19T05:24:49;26.00;99.90
18101;DHT22;9177;49.156;8.142;2022-08-19T05:27:16;26.00;99.90
18101;DHT22;9177;49.156;8.142;2022-08-19T05:29:43;26.00;99.90
18101;DHT22;9177;49.156;8.142;2022-08-19T05:32:10;26.00;99.90
18101;DHT22;9177;49.156;8.142;2022-08-19T05:34:38;26.00;99.90
18101;DHT22;9177;49.156;8.142;2022-08-19T05:37:06;26.00;99.90
18101;DHT22;9177;49.156;8.142;2022-08-19T05:39:35;26.00;99.90
18101;DHT22;9177;49.156;8.142;2022-08-19T05:42:04;26.00;99.90
18101;DHT22;9177;49.156;8.142;2022-08-19T05:44:34;26.00;99.90
18101;DHT22;9177;49.156;8.142;2022-08-19T05:47:04;26.00;99.90
18101;DHT22;9177;49.156;8.142;2022-08-19T05:49:32;26.00;99.90
18101;DHT22;9177;49.156;8.142;2022-08-19T05:52:05;26.00;99.90
18101;DHT22;9177;49.156;8.142;2022-08-19T05:54:33;26.00;99.90
18101;DHT22;9177;49.156;8.142;2022-08-19T05:57:02;26.00;99.90
18101;DHT22;9177;49.156;8.142;2022-08-19T05:59:29;26.00;99.90
18101;DHT22;9177;49.156;8.142;2022-08-19T06:01:59;26.00;99.90
18101;DHT22;9177;49.156;8.142;2022-08-19T06:04:29;26.00;99.90
18101;DHT22;9177;49.156;8.142;2022-08-19T06:06:56;26.00;99.90
18101;DHT22;9177;49.156;8.142;2022-08-19T06:09:25;26.00;99.90
18101;DHT22;9177;49.156;8.142;2022-08-19T06:11:54;26.00;99.90
18101;DHT22;9177;49.156;8.142;2022-08-19T06:14:29;26.00;99.90
18101;DHT22;9177;49.156;8.142;2022-08-19T06:16:57;26.00;99.90
18101;DHT22;9177;49.156;8.142;2022-08-19T06:19:28;26.00;99.90
18101;DHT22;9177;49.156;8.142;2022-08-19T06:21:56;26.00;99.90
18101;DHT22;9177;49.156;8.142;2022-08-19T06:24:27;26.00;99.90
18101;DHT22;9177;49.156;8.142;2022-08-19T06:26:57;26.00;99.90
18101;DHT22;9177;49.156;8.142;2022-08-19T06:29:25;26.00;99.90
18101;DHT22;9177;49.156;8.142;2022-08-19T06:31:55;26.00;99.90
18101;DHT22;9177;49.156;8.142;2022-08-19T06:34:23;26.00;99.90
18101;DHT22;9177;49.156;8.142;2022-08-19T06:36:52;25.90;99.90
18101;DHT22;9177;49.156;8.142;2022-08-19T06:39:21;25.90;99.90
18101;DHT22;9177;49.156;8.142;2022-08-19T06:41:51;25.90;99.90
18101;DHT22;9177;49.156;8.142;2022-08-19T06:44:21;25.90;99.90
18101;DHT22;9177;49.156;8.142;2022-08-19T06:46:48;25.90;99.90
18101;DHT22;9177;49.156;8.142;2022-08-19T06:49:16;25.90;99.90
18101;DHT22;9177;49.156;8.142;2022-08-19T06:51:45;25.90;99.90
18101;DHT22;9177;49.156;8.142;2022-08-19T06:54:14;25.90;99.90
18101;DHT22;9177;49.156;8.142;2022-08-19T06:56:41;25.90;99.90
18101;DHT22;9177;49.156;8.142;2022-08-19T06:59:13;25.90;99.90
18101;DHT22;9177;49.156;8.142;2022-08-19T07:01:42;25.90;99.90
18101;DHT22;9177;49.156;8.142;2022-08-19T07:04:11;25.90;99.90
18101;DHT22;9177;49.156;8.142;2022-08-19T07:06:39;25.90;99.90
18101;DHT22;9177;49.156;8.142;2022-08-19T07:09:08;25.90;99.90
18101;DHT22;9177;49.156;8.142;2022-08-19T07:11:35;25.90;99.90
18101;DHT22;9177;49.156;8.142;2022-08-19T07:14:02;25.90;99.90
18101;DHT22;9177;49.156;8.142;2022-08-19T07:16:34;25.90;99.90
18101;DHT22;9177;49.156;8.142;2022-08-19T07:19:00;25.90;99.90
18101;DHT22;9177;49.156;8.142;2022-08-19T07:21:28;25.90;99.90
18101;DHT22;9177;49.156;8.142;2022-08-19T07:23:56;25.90;99.90
18101;DHT22;9177;49.156;8.142;2022-08-19T07:26:26;25.90;99.90
18101;DHT22;9177;49.156;8.142;2022-08-19T07:28:53;25.90;99.90
18101;DHT22;9177;49.156;8.142;2022-08-19T07:31:22;25.90;99.90
18101;DHT22;9177;49.156;8.142;2022-08-19T07:33:52;25.90;99.90
18101;DHT22;9177;49.156;8.142;2022-08-19T07:36:23;25.90;99.90
18101;DHT22;9177;49.156;8.142;2022-08-19T07:38:51;25.90;99.90
18101;DHT22;9177;49.156;8.142;2022-08-19T07:41:22;25.90;99.90
18101;DHT22;9177;49.156;8.142;2022-08-19T07:43:49;26.00;99.90
18101;DHT22;9177;49.156;8.142;2022-08-19T07:46:18;26.00;99.90
18101;DHT22;9177;49.156;8.142;2022-08-19T07:48:47;26.00;99.90
18101;DHT22;9177;49.156;8.142;2022-08-19T07:51:18;26.00;99.90
18101;DHT22;9177;49.156;8.142;2022-08-19T07:53:46;26.00;99.90
18101;DHT22;9177;49.156;8.142;2022-08-19T07:56:14;26.00;99.90
18101;DHT22;9177;49.156;8.142;2022-08-19T07:58:44;26.00;99.90
18101;DHT22;9177;49.156;8.142;2022-08-19T08:01:15;26.00;99.90
18101;DHT22;9177;49.156;8.142;2022-08-19T08:03:43;26.00;99.90
18101;DHT22;9177;49.156;8.142;2022-08-19T08:06:29;26.00;99.90
18101;DHT22;9177;49.156;8.142;2022-08-19T08:09:17;26.00;99.90
18101;DHT22;9177;49.156;8.142;2022-08-19T08:11:49;26.00;99.90
18101;DHT22;9177;49.156;8.142;2022-08-19T08:14:18;26.00;99.90
18101;DHT22;9177;49.156;8.142;2022-08-19T08:16:47;26.00;99.90
18101;DHT22;9177;49.156;8.142;2022-08-19T08:19:17;26.00;99.90
18101;DHT22;9177;49.156;8.142;2022-08-19T08:21:46;26.00;99.90
18101;DHT22;9177;49.156;8.142;2022-08-19T08:24:14;26.10;99.90
18101;DHT22;9177;49.156;8.142;2022-08-19T08:26:41;26.10;99.90
18101;DHT22;9177;49.156;8.142;2022-08-19T08:29:09;26.10;99.90
18101;DHT22;9177;49.156;8.142;2022-08-19T08:31:38;26.10;99.90
18101;DHT22;9177;49.156;8.142;2022-08-19T08:34:06;26.10;99.90
18101;DHT22;9177;49.156;8.142;2022-08-19T08:36:37;26.10;99.90
18101;DHT22;9177;49.156;8.142;2022-08-19T08:39:07;26.10;99.90
18101;DHT22;9177;49.156;8.142;2022-08-19T08:41:39;26.10;99.90
18101;DHT22;9177;49.156;8.142;2022-08-19T08:44:13;26.10;99.90
18101;DHT22;9177;49.156;8.142;2022-08-19T08:46:45;26.10;99.90
18101;DHT22;9177;49.156;8.142;2022-08-19T08:49:29;26.20;99.90
18101;DHT22;9177;49.156;8.142;2022-08-19T08:52:00;26.10;99.90
18101;DHT22;9177;49.156;8.142;2022-08-19T08:54:34;26.10;99.90
18101;DHT22;9177;49.156;8.142;2022-08-19T08:57:04;26.20;99.90
18101;DHT22;9177;49.156;8.142;2022-08-19T08:59:35;26.20;99.90
18101;DHT22;9177;49.156;8.142;2022-08-19T09:02:03;26.20;99.90
18101;DHT22;9177;49.156;8.142;2022-08-19T09:04:30;26.20;99.90
18101;DHT22;9177;49.156;8.142;2022-08-19T09:07:07;26.20;99.90
18101;DHT22;9177;49.156;8.142;2022-08-19T09:09:40;26.20;99.90
18101;DHT22;9177;49.156;8.142;2022-08-19T09:12:13;26.20;99.90
18101;DHT22;9177;49.156;8.142;2022-08-19T09:14:48;26.20;99.90
18101;DHT22;9177;49.156;8.142;2022-08-19T09:17:17;26.20;99.90
18101;DHT22;9177;49.156;8.142;2022-08-19T09:19:50;26.20;99.90
18101;DHT22;9177;49.156;8.142;2022-08-19T09:22:18;26.20;99.90
18101;DHT22;9177;49.156;8.142;2022-08-19T09:24:48;26.20;99.90
18101;DHT22;9177;49.156;8.142;2022-08-19T09:27:16;26.20;99.90
18101;DHT22;9177;49.156;8.142;2022-08-19T09:29:43;26.30;99.90
18101;DHT22;9177;49.156;8.142;2022-08-19T09:32:10;26.30;99.90
18101;DHT22;9177;49.156;8.142;2022-08-19T09:34:37;26.30;99.90
18101;DHT22;9177;49.156;8.142;2022-08-19T09:37:05;26.30;99.90
18101;DHT22;9177;49.156;8.142;2022-08-19T09:39:32;26.30;99.90
18101;DHT22;9177;49.156;8.142;2022-08-19T09:42:00;26.30;99.90
18101;DHT22;9177;49.156;8.142;2022-08-19T09:44:29;26.30;99.90
18101;DHT22;9177;49.156;8.142;2022-08-19T09:46:56;26.30;99.90
18101;DHT22;9177;49.156;8.142;2022-08-19T09:49:23;26.30;99.90
18101;DHT22;9177;49.156;8.142;2022-08-19T09:51:50;26.30;99.90
18101;DHT22;9177;49.156;8.142;2022-08-19T09:54:19;26.30;99.90
18101;DHT22;9177;49.156;8.142;2022-08-19T09:56:46;26.30;99.90
18101;DHT22;9177;49.156;8.142;2022-08-19T09:59:14;26.30;99.80
18101;DHT22;9177;49.156;8.142;2022-08-19T10:01:41;26.30;99.90
18101;DHT22;9177;49.156;8.142;2022-08-19T10:04:08;26.30;99.90
18101;DHT22;9177;49.156;8.142;2022-08-19T10:06:37;26.30;99.90
18101;DHT22;9177;49.156;8.142;2022-08-19T10:09:07;26.30;99.90
18101;DHT22;9177;49.156;8.142;2022-08-19T10:11:36;26.30;99.90
18101;DHT22;9177;49.156;8.142;2022-08-19T10:14:04;26.30;99.90
18101;DHT22;9177;49.156;8.142;2022-08-19T10:16:35;26.30;99.90
18101;DHT22;9177;49.156;8.142;2022-08-19T10:19:02;26.30;99.90
18101;DHT22;9177;49.156;8.142;2022-08-19T10:21:34;26.30;99.70
18101;DHT22;9177;49.156;8.142;2022-08-19T10:24:03;26.30;99.60
18101;DHT22;9177;49.156;8.142;2022-08-19T10:26:33;26.40;99.50
18101;DHT22;9177;49.156;8.142;2022-08-19T10:29:02;26.40;99.40
18101;DHT22;9177;49.156;8.142;2022-08-19T10:31:32;26.40;99.30
18101;DHT22;9177;49.156;8.142;2022-08-19T10:34:00;26.40;99.30
18101;DHT22;9177;49.156;8.142;2022-08-19T10:36:30;26.50;99.30
18101;DHT22;9177;49.156;8.142;2022-08-19T10:38:59;26.40;99.20
18101;DHT22;9177;49.156;8.142;2022-08-19T10:41:29;26.40;99.40
18101;DHT22;9177;49.156;8.142;2022-08-19T10:43:59;26.40;99.20
18101;DHT22;9177;49.156;8.142;2022-08-19T10:46:28;26.50;99.30
18101;DHT22;9177;49.156;8.142;2022-08-19T10:48:59;26.50;99.30
18101;DHT22;9177;49.156;8.142;2022-08-19T10:51:27;26.50;99.20
18101;DHT22;9177;49.156;8.142;2022-08-19T10:54:17;26.50;99.30
18101;DHT22;9177;49.156;8.142;2022-08-19T10:56:44;26.50;99.10
18101;DHT22;9177;49.156;8.142;2022-08-19T10:59:22;26.50;99.10
18101;DHT22;9177;49.156;8.142;2022-08-19T11:01:50;26.50;99.20
18101;DHT22;9177;49.156;8.142;2022-08-19T11:04:20;26.50;99.10
18101;DHT22;9177;49.156;8.142;2022-08-19T11:06:48;26.50;99.10
18101;DHT22;9177;49.156;8.142;2022-08-19T11:09:16;26.40;99.10
18101;DHT22;9177;49.156;8.142;2022-08-19T11:11:44;26.40;99.20
18101;DHT22;9177;49.156;8.142;2022-08-19T11:14:13;26.40;99.20
18101;DHT22;9177;49.156;8.142;2022-08-19T11:16:41;26.40;99.10
18101;DHT22;9177;49.156;8.142;2022-08-19T11:19:10;26.40;99.10
18101;DHT22;9177;49.156;8.142;2022-08-19T11:21:40;26.40;99.10
18101;DHT22;9177;49.156;8.142;2022-08-19T11:24:09;26.40;99.00
18101;DHT22;9177;49.156;8.142;2022-08-19T11:26:43;26.50;99.00
18101;DHT22;9177;49.156;8.142;2022-08-19T11:29:12;26.50;99.30
18101;DHT22;9177;49.156;8.142;2022-08-19T11:31:41;26.50;98.90
18101;DHT22;9177;49.156;8.142;2022-08-19T11:34:11;26.50;98.80
18101;DHT22;9177;49.156;8.142;2022-08-19T11:36:43;26.60;98.80
18101;DHT22;9177;49.156;8.142;2022-08-19T11:39:13;26.60;98.80
18101;DHT22;9177;49.156;8.142;2022-08-19T11:41:40;26.60;98.60
18101;DHT22;9177;49.156;8.142;2022-08-19T11:44:07;26.70;98.60
18101;DHT22;9177;49.156;8.142;2022-08-19T11:46:35;26.70;98.60
18101;DHT22;9177;49.156;8.142;2022-08-19T11:49:03;26.70;98.60
18101;DHT22;9177;49.156;8.142;2022-08-19T11:51:34;26.70;98.60
18101;DHT22;9177;49.156;8.142;2022-08-19T11:54:05;26.70;98.40
18101;DHT22;9177;49.156;8.142;2022-08-19T11:56:32;26.70;98.40
18101;DHT22;9177;49.156;8.142;2022-08-19T11:59:00;26.80;98.30
18101;DHT22;9177;49.156;8.142;2022-08-19T12:01:29;26.80;98.30
18101;DHT22;9177;49.156;8.142;2022-08-19T12:03:58;26.80;98.30
18101;DHT22;9177;49.156;8.142;2022-08-19T12:06:29;26.80;98.30
18101;DHT22;9177;49.156;8.142;2022-08-19T12:08:58;26.80;98.10
18101;DHT22;9177;49.156;8.142;2022-08-19T12:11:27;26.90;97.80
18101;DHT22;9177;49.156;8.142;2022-08-19T12:13:55;27.00;97.70
18101;DHT22;9177;49.156;8.142;2022-08-19T12:16:24;27.00;97.50
18101;DHT22;9177;49.156;8.142;2022-08-19T12:18:52;27.10;97.30
18101;DHT22;9177;49.156;8.142;2022-08-19T12:21:22;27.10;97.20
18101;DHT22;9177;49.156;8.142;2022-08-19T12:23:49;27.10;97.20
18101;DHT22;9177;49.156;8.142;2022-08-19T12:26:17;27.10;97.00
18101;DHT22;9177;49.156;8.142;2022-08-19T12:28:45;27.10;97.10
18101;DHT22;9177;49.156;8.142;2022-08-19T12:31:13;27.10;97.00
18101;DHT22;9177;49.156;8.142;2022-08-19T12:33:42;27.20;96.70
18101;DHT22;9177;49.156;8.142;2022-08-19T12:36:11;27.20;96.80
18101;DHT22;9177;49.156;8.142;2022-08-19T12:38:39;27.30;96.90
18101;DHT22;9177;49.156;8.142;2022-08-19T12:41:08;27.30;96.90
18101;DHT22;9177;49.156;8.142;2022-08-19T12:43:36;27.30;96.60
18101;DHT22;9177;49.156;8.142;2022-08-19T12:46:06;27.30;96.60
18101;DHT22;9177;49.156;8.142;2022-08-19T12:48:33;27.30;96.40
18101;DHT22;9177;49.156;8.142;2022-08-19T12:51:01;27.30;96.70
18101;DHT22;9177;49.156;8.142;2022-08-19T12:53:32;27.30;96.60
18101;DHT22;9177;49.156;8.142;2022-08-19T12:55:59;27.30;96.50
18101;DHT22;9177;49.156;8.142;2022-08-19T12:58:26;27.30;96.50
18101;DHT22;9177;49.156;8.142;2022-08-19T13:00:53;27.20;97.00
18101;DHT22;9177;49.156;8.142;2022-08-19T13:03:22;27.20;96.60
18101;DHT22;9177;49.156;8.142;2022-08-19T13:05:54;27.10;96.70
18101;DHT22;9177;49.156;8.142;2022-08-19T13:08:21;27.10;96.60
18101;DHT22;9177;49.156;8.142;2022-08-19T13:10:48;27.10;96.60
18101;DHT22;9177;49.156;8.142;2022-08-19T13:13:15;27.10;96.70
18101;DHT22;9177;49.156;8.142;2022-08-19T13:15:42;27.00;96.50
18101;DHT22;9177;49.156;8.142;2022-08-19T13:18:11;27.00;96.50
18101;DHT22;9177;49.156;8.142;2022-08-19T13:20:40;27.00;96.50
18101;DHT22;9177;49.156;8.142;2022-08-19T13:23:08;26.90;96.30
18101;DHT22;9177;49.156;8.142;2022-08-19T13:25:35;26.90;96.50
18101;DHT22;9177;49.156;8.142;2022-08-19T13:28:03;26.90;96.30
18101;DHT22;9177;49.156;8.142;2022-08-19T13:30:32;26.90;96.50
18101;DHT22;9177;49.156;8.142;2022-08-19T13:33:17;27.10;96.10
18101;DHT22;9177;49.156;8.142;2022-08-19T13:35:49;27.20;96.20
18101;DHT22;9177;49.156;8.142;2022-08-19T13:38:18;27.30;95.90
18101;DHT22;9177;49.156;8.142;2022-08-19T13:40:47;27.30;95.90
18101;DHT22;9177;49.156;8.142;2022-08-19T13:43:18;27.40;95.90
18101;DHT22;9177;49.156;8.142;2022-08-19T13:45:46;27.50;96.00
18101;DHT22;9177;49.156;8.142;2022-08-19T13:48:13;27.60;95.90
18101;DHT22;9177;49.156;8.142;2022-08-19T13:50:43;27.60;95.80
18101;DHT22;9177;49.156;8.142;2022-08-19T13:53:14;27.70;95.80
18101;DHT22;9177;49.156;8.142;2022-08-19T13:55:43;27.70;95.50
18101;DHT22;9177;49.156;8.142;2022-08-19T13:58:11;27.60;95.60
18101;DHT22;9177;49.156;8.142;2022-08-19T14:00:41;27.60;95.70
18101;DHT22;9177;49.156;8.142;2022-08-19T14:03:09;27.60;95.60
18101;DHT22;9177;49.156;8.142;2022-08-19T14:05:37;27.60;95.70
18101;DHT22;9177;49.156;8.142;2022-08-19T14:08:04;27.50;95.70
18101;DHT22;9177;49.156;8.142;2022-08-19T14:10:33;27.40;95.70
18101;DHT22;9177;49.156;8.142;2022-08-19T14:13:01;27.40;95.70
18101;DHT22;9177;49.156;8.142;2022-08-19T14:15:29;27.30;95.80
18101;DHT22;9177;49.156;8.142;2022-08-19T14:17:57;27.30;95.60
18101;DHT22;9177;49.156;8.142;2022-08-19T14:20:24;27.20;95.80
18101;DHT22;9177;49.156;8.142;2022-08-19T14:22:51;27.20;95.40
18101;DHT22;9177;49.156;8.142;2022-08-19T14:25:21;27.20;95.50
18101;DHT22;9177;49.156;8.142;2022-08-19T14:27:50;27.10;95.30
18101;DHT22;9177;49.156;8.142;2022-08-19T14:30:20;27.10;95.40
18101;DHT22;9177;49.156;8.142;2022-08-19T14:32:47;27.00;95.20
18101;DHT22;9177;49.156;8.142;2022-08-19T14:35:15;27.10;95.40
18101;DHT22;9177;49.156;8.142;2022-08-19T14:37:44;27.00;95.20
18101;DHT22;9177;49.156;8.142;2022-08-19T14:40:14;27.00;95.20
18101;DHT22;9177;49.156;8.142;2022-08-19T14:42:41;26.90;95.20
18101;DHT22;9177;49.156;8.142;2022-08-19T14:45:11;27.00;95.10
18101;DHT22;9177;49.156;8.142;2022-08-19T14:47:38;26.90;95.10
18101;DHT22;9177;49.156;8.142;2022-08-19T14:50:06;26.90;95.10
18101;DHT22;9177;49.156;8.142;2022-08-19T14:52:33;26.90;95.20
18101;DHT22;9177;49.156;8.142;2022-08-19T14:55:00;26.90;95.20
18101;DHT22;9177;49.156;8.142;2022-08-19T14:57:27;26.80;95.10
18101;DHT22;9177;49.156;8.142;2022-08-19T14:59:54;26.80;95.20
18101;DHT22;9177;49.156;8.142;2022-08-19T15:02:23;26.80;95.20
18101;DHT22;9177;49.156;8.142;2022-08-19T15:04:50;26.80;95.30
18101;DHT22;9177;49.156;8.142;2022-08-19T15:07:17;26.80;95.40
18101;DHT22;9177;49.156;8.142;2022-08-19T15:09:44;26.80;95.60
18101;DHT22;9177;49.156;8.142;2022-08-19T15:12:11;26.80;95.40
18101;DHT22;9177;49.156;8.142;2022-08-19T15:14:38;26.80;95.60
18101;DHT22;9177;49.156;8.142;2022-08-19T15:17:05;26.80;95.70
18101;DHT22;9177;49.156;8.142;2022-08-19T15:19:33;26.80;95.70
18101;DHT22;9177;49.156;8.142;2022-08-19T15:22:01;26.80;95.80
18101;DHT22;9177;49.156;8.142;2022-08-19T15:24:28;26.80;95.90
18101;DHT22;9177;49.156;8.142;2022-08-19T15:26:55;26.80;95.80
18101;DHT22;9177;49.156;8.142;2022-08-19T15:29:22;26.80;95.30
18101;DHT22;9177;49.156;8.142;2022-08-19T15:31:53;26.80;95.50
18101;DHT22;9177;49.156;8.142;2022-08-19T15:34:23;26.80;95.30
18101;DHT22;9177;49.156;8.142;2022-08-19T15:36:51;26.80;96.10
18101;DHT22;9177;49.156;8.142;2022-08-19T15:39:18;26.80;95.40
18101;DHT22;9177;49.156;8.142;2022-08-19T15:41:46;26.80;95.60
18101;DHT22;9177;49.156;8.142;2022-08-19T15:44:15;26.80;95.50
18101;DHT22;9177;49.156;8.142;2022-08-19T15:46:45;26.80;95.30
18101;DHT22;9177;49.156;8.142;2022-08-19T15:49:14;26.90;95.70
18101;DHT22;9177;49.156;8.142;2022-08-19T15:51:45;26.90;95.30
18101;DHT22;9177;49.156;8.142;2022-08-19T15:54:18;26.90;95.40
18101;DHT22;9177;49.156;8.142;2022-08-19T15:56:46;26.90;95.20